Time;durP1;ratioP1;P1;durP2;ratioP2;P2;SDS_P1;SDS_P2;PMS_P1;PMS_P2;Temp;Humidity;BMP_temperature;BMP_pressure;BME280_temperature;BME280_humidity;BME280_pressure;Samples;Min_cycle;Max_cycle;Signal;HPM_P1;HPM_P2
2023/01/24 00:00:26;;;;;;;28.85;16.00;;;;;;;;;;4955233;28;20045;-71
2023/01/24 00:02:52;;;;;;;27.08;15.23;;;;;;;;;;4955465;28;20065;-71
2023/01/24 00:05:18;;;;;;;30.13;15.85;;;;;;;;;;4955320;28;20039;-71
2023/01/24 00:07:44;;;;;;;26.15;15.88;;;;;;;;;;4972035;28;20046;-71
2023/01/24 00:10:10;;;;;;;27.40;15.43;;;;;;;;;;4951794;29;20050;-71
2023/01/24 00:12:36;;;;;;;25.42;14.82;;;;;;;;;;4954733;28;20566;-71
2023/01/24 00:15:03;;;;;;;24.45;14.23;;;;;;;;;;4954736;28;20429;-71
2023/01/24 00:17:29;;;;;;;26.40;15.75;;;;;;;;;;4954905;28;20053;-71
2023/01/24 00:19:55;;;;;;;27.38;15.40;;;;;;;;;;4955035;28;20521;-71
2023/01/24 00:22:21;;;;;;;26.48;15.15;;;;;;;;;;4954291;28;20055;-71
2023/01/24 00:24:48;;;;;;;27.48;16.48;;;;;;;;;;4954579;28;20537;-71
2023/01/24 00:27:14;;;;;;;25.67;14.93;;;;;;;;;;4936290;29;20137;-71
2023/01/24 00:29:40;;;;;;;25.30;15.00;;;;;;;;;;4952510;29;20110;-71
2023/01/24 00:32:06;;;;;;;27.88;15.95;;;;;;;;;;4935748;29;20563;-71
2023/01/24 00:34:32;;;;;;;29.45;16.50;;;;;;;;;;4935630;29;20525;-71
2023/01/24 00:36:58;;;;;;;30.95;16.92;;;;;;;;;;4935181;29;20043;-71
2023/01/24 00:39:25;;;;;;;26.23;15.02;;;;;;;;;;4935444;29;20047;-71
2023/01/24 00:41:51;;;;;;;33.20;16.08;;;;;;;;;;4935615;29;20098;-71
2023/01/24 00:44:17;;;;;;;29.67;15.90;;;;;;;;;;4935620;29;20051;-71
2023/01/24 00:46:43;;;;;;;30.25;16.80;;;;;;;;;;4935327;29;20130;-71
2023/01/24 00:49:09;;;;;;;29.13;16.27;;;;;;;;;;4935569;29;20043;-71
2023/01/24 00:51:35;;;;;;;28.45;16.15;;;;;;;;;;4935587;29;20545;-71
2023/01/24 00:54:01;;;;;;;31.65;16.08;;;;;;;;;;4934793;29;20094;-71
2023/01/24 00:56:27;;;;;;;30.02;16.60;;;;;;;;;;4935322;29;20038;-71
2023/01/24 00:58:54;;;;;;;26.48;16.08;;;;;;;;;;4935258;29;20047;-71
2023/01/24 01:01:20;;;;;;;29.50;15.82;;;;;;;;;;4934745;29;20130;-71
2023/01/24 01:03:46;;;;;;;30.00;16.33;;;;;;;;;;4935269;29;20069;-71
2023/01/24 01:06:16;;;;;;;28.90;16.75;;;;;;;;;;4919379;29;20094;-71
2023/01/24 01:08:42;;;;;;;30.08;16.52;;;;;;;;;;4936975;28;20043;-71
2023/01/24 01:11:08;;;;;;;30.23;16.52;;;;;;;;;;4954387;28;20085;-71
2023/01/24 01:13:34;;;;;;;29.73;16.83;;;;;;;;;;4953915;28;20098;-71
2023/01/24 01:16:05;;;;;;;32.15;17.70;;;;;;;;;;4954025;28;20038;-71
2023/01/24 01:18:31;;;;;;;29.45;16.67;;;;;;;;;;4954205;28;20131;-71
2023/01/24 01:20:58;;;;;;;27.90;15.90;;;;;;;;;;4938187;28;20051;-71
2023/01/24 01:23:23;;;;;;;30.02;16.30;;;;;;;;;;4953588;28;20070;-71
2023/01/24 01:25:50;;;;;;;34.55;16.55;;;;;;;;;;4946705;29;20497;-71
2023/01/24 01:28:16;;;;;;;32.70;17.52;;;;;;;;;;4934789;29;20051;-71
2023/01/24 01:30:42;;;;;;;28.83;16.88;;;;;;;;;;4934928;29;20054;-71
2023/01/24 01:33:08;;;;;;;29.67;17.63;;;;;;;;;;4919022;29;20062;-71
2023/01/24 01:35:34;;;;;;;29.58;16.40;;;;;;;;;;4935287;29;20482;-71
2023/01/24 01:38:00;;;;;;;29.40;16.60;;;;;;;;;;4934472;29;20039;-71
2023/01/24 01:40:26;;;;;;;32.50;18.42;;;;;;;;;;4935083;29;20058;-71
2023/01/24 01:42:53;;;;;;;30.73;16.73;;;;;;;;;;4934699;29;20051;-71
2023/01/24 01:45:38;;;;;;;31.67;17.67;;;;;;;;;;4934598;29;20086;-71
2023/01/24 01:48:23;;;;;;;31.02;16.90;;;;;;;;;;4934995;29;20051;-71
2023/01/24 01:50:56;;;;;;;33.58;18.33;;;;;;;;;;4934627;29;20050;-71
2023/01/24 01:53:24;;;;;;;31.33;16.88;;;;;;;;;;4934656;29;20749;-71
2023/01/24 01:55:52;;;;;;;31.00;17.02;;;;;;;;;;4934942;29;20409;-71
2023/01/24 01:58:18;;;;;;;28.83;16.50;;;;;;;;;;4938451;29;20043;-71
2023/01/24 02:00:49;;;;;;;32.50;16.95;;;;;;;;;;4922043;29;20054;-71
2023/01/24 02:06:02;;;;;;;31.00;17.15;;;;;;;;;;4937929;29;20094;-71
2023/01/24 02:08:29;;;;;;;31.05;16.90;;;;;;;;;;4938910;28;20071;-71
2023/01/24 02:13:44;;;;;;;31.30;17.08;;;;;;;;;;4956616;28;20409;-71
2023/01/24 02:16:12;;;;;;;34.35;17.27;;;;;;;;;;4957174;28;20054;-71
2023/01/24 02:18:39;;;;;;;34.42;17.27;;;;;;;;;;4957438;28;20043;-71
2023/01/24 02:21:08;;;;;;;28.88;16.42;;;;;;;;;;4956545;28;20051;-71
2023/01/24 02:23:51;;;;;;;31.35;17.13;;;;;;;;;;4956955;28;20043;-71
2023/01/24 02:26:24;;;;;;;29.00;15.43;;;;;;;;;;4956962;28;20046;-71
2023/01/24 02:29:07;;;;;;;27.13;15.52;;;;;;;;;;4956478;28;20054;-71
2023/01/24 02:31:52;;;;;;;28.98;15.93;;;;;;;;;;4940839;28;20045;-71
2023/01/24 02:34:18;;;;;;;27.13;15.18;;;;;;;;;;4957126;28;20077;-71
2023/01/24 02:36:44;;;;;;;28.55;15.80;;;;;;;;;;4956199;28;20618;-71
2023/01/24 02:39:12;;;;;;;26.30;15.25;;;;;;;;;;4956782;28;20074;-71
2023/01/24 02:41:41;;;;;;;25.05;14.57;;;;;;;;;;4941019;28;20053;-71
2023/01/24 02:44:11;;;;;;;25.02;14.23;;;;;;;;;;4956259;28;20047;-71
2023/01/24 02:46:37;;;;;;;25.50;14.45;;;;;;;;;;4956559;28;20054;-71
2023/01/24 02:49:07;;;;;;;21.40;13.80;;;;;;;;;;4956583;28;20088;-71
2023/01/24 02:54:18;;;;;;;22.50;12.48;;;;;;;;;;4956405;28;20046;-71
2023/01/24 02:59:29;;;;;;;21.63;12.13;;;;;;;;;;4956087;28;20465;-71
2023/01/24 03:01:55;;;;;;;23.17;12.82;;;;;;;;;;4956417;28;20713;-71
2023/01/24 03:04:21;;;;;;;19.83;12.02;;;;;;;;;;4956119;28;20055;-71
2023/01/24 03:06:50;;;;;;;22.02;13.32;;;;;;;;;;4955765;28;20046;-71
2023/01/24 03:09:33;;;;;;;23.35;12.88;;;;;;;;;;4952163;29;20047;-71
2023/01/24 03:36:43;;;;;;;22.58;13.35;;;;;;;;;;4935967;29;20047;-71
2023/01/24 03:41:56;;;;;;;23.02;13.38;;;;;;;;;;4936292;29;20055;-71
2023/01/24 03:44:23;;;;;;;26.52;14.70;;;;;;;;;;4935824;29;20453;-71
2023/01/24 03:46:49;;;;;;;25.90;13.93;;;;;;;;;;4936601;29;20051;-71
2023/01/24 03:49:16;;;;;;;25.08;14.43;;;;;;;;;;4936117;29;20198;-71
2023/01/24 03:54:28;;;;;;;23.83;13.98;;;;;;;;;;4935922;29;20039;-71
2023/01/24 03:56:54;;;;;;;25.25;14.85;;;;;;;;;;4936063;29;20093;-71
2023/01/24 03:59:20;;;;;;;25.10;14.15;;;;;;;;;;4935961;29;20159;-71
2023/01/24 04:01:46;;;;;;;24.05;13.80;;;;;;;;;;4936399;29;20055;-71
2023/01/24 04:04:12;;;;;;;26.00;14.60;;;;;;;;;;4935775;29;20051;-71
2023/01/24 04:06:38;;;;;;;24.25;13.68;;;;;;;;;;4935951;29;20406;-71
2023/01/24 04:09:04;;;;;;;23.27;13.07;;;;;;;;;;4941525;28;20047;-71
2023/01/24 04:11:30;;;;;;;23.20;13.98;;;;;;;;;;4955048;28;20046;-71
2023/01/24 04:13:56;;;;;;;24.38;13.85;;;;;;;;;;4954475;28;20078;-71
2023/01/24 04:16:22;;;;;;;21.10;13.05;;;;;;;;;;4954967;28;20042;-71
2023/01/24 04:18:48;;;;;;;21.50;13.32;;;;;;;;;;4971949;28;20050;-71
2023/01/24 04:21:14;;;;;;;22.83;13.10;;;;;;;;;;4954330;28;20532;-71
2023/01/24 04:23:40;;;;;;;23.90;12.90;;;;;;;;;;4954671;28;20047;-71
2023/01/24 04:26:06;;;;;;;21.77;12.65;;;;;;;;;;4945353;29;20062;-71
2023/01/24 04:28:33;;;;;;;20.08;12.38;;;;;;;;;;4934917;29;20114;-71
2023/01/24 04:30:59;;;;;;;20.27;12.50;;;;;;;;;;4935843;29;20050;-71
2023/01/24 04:33:26;;;;;;;25.52;13.30;;;;;;;;;;4935775;29;20043;-71
2023/01/24 04:35:56;;;;;;;22.67;13.60;;;;;;;;;;4935426;29;20047;-71
2023/01/24 04:38:22;;;;;;;21.92;12.57;;;;;;;;;;4935461;29;20146;-71
2023/01/24 04:40:48;;;;;;;19.65;12.63;;;;;;;;;;4935618;29;20755;-71
2023/01/24 04:43:14;;;;;;;19.77;11.60;;;;;;;;;;4935281;29;20050;-71
2023/01/24 04:45:40;;;;;;;19.52;11.27;;;;;;;;;;4935354;29;20051;-71
2023/01/24 04:48:06;;;;;;;19.52;12.40;;;;;;;;;;4935760;29;20046;-71
2023/01/24 04:50:32;;;;;;;17.60;10.90;;;;;;;;;;4934709;29;20047;-71
2023/01/24 04:52:58;;;;;;;19.30;11.65;;;;;;;;;;4935228;29;20035;-71
2023/01/24 04:55:24;;;;;;;18.23;11.52;;;;;;;;;;4935251;29;20054;-71
2023/01/24 04:57:50;;;;;;;18.52;10.95;;;;;;;;;;4934978;29;20367;-71
2023/01/24 05:00:16;;;;;;;14.90;10.13;;;;;;;;;;4935533;29;20095;-71
2023/01/24 05:02:42;;;;;;;18.60;10.68;;;;;;;;;;4935445;29;20047;-71
2023/01/24 05:05:08;;;;;;;18.23;10.55;;;;;;;;;;4934767;29;20147;-71
2023/01/24 05:07:34;;;;;;;19.05;10.57;;;;;;;;;;4935326;29;20043;-71
2023/01/24 05:10:01;;;;;;;18.80;11.40;;;;;;;;;;4947902;28;20046;-71
2023/01/24 05:12:27;;;;;;;19.88;10.75;;;;;;;;;;4946287;29;20039;-71
2023/01/24 05:14:53;;;;;;;18.10;10.55;;;;;;;;;;4934878;29;20127;-71
2023/01/24 05:17:19;;;;;;;17.02;10.90;;;;;;;;;;4935534;29;20969;-71
2023/01/24 05:19:45;;;;;;;17.90;10.27;;;;;;;;;;4934751;29;20066;-71
2023/01/24 05:22:11;;;;;;;17.40;10.70;;;;;;;;;;4935073;29;20063;-71
2023/01/24 05:24:37;;;;;;;18.50;11.20;;;;;;;;;;4934951;29;20047;-71
2023/01/24 05:27:03;;;;;;;17.27;10.40;;;;;;;;;;4951528;28;20050;-71
2023/01/24 05:29:29;;;;;;;16.63;9.63;;;;;;;;;;4954108;28;20082;-71
2023/01/24 05:31:55;;;;;;;17.90;10.23;;;;;;;;;;4956228;28;20047;-71
2023/01/24 05:34:21;;;;;;;16.08;9.10;;;;;;;;;;4957603;28;20050;-70
2023/01/24 05:36:47;;;;;;;16.58;9.30;;;;;;;;;;4957629;28;20045;-70
2023/01/24 05:39:14;;;;;;;16.00;9.02;;;;;;;;;;4941930;28;20065;-70
2023/01/24 05:41:40;;;;;;;14.45;9.30;;;;;;;;;;4957428;28;20508;-70
2023/01/24 05:44:06;;;;;;;17.05;9.05;;;;;;;;;;4957963;28;20347;-70
2023/01/24 05:46:32;;;;;;;16.05;9.00;;;;;;;;;;4957784;28;20108;-70
2023/01/24 05:48:58;;;;;;;17.73;9.60;;;;;;;;;;4941653;28;20133;-70
2023/01/24 05:51:24;;;;;;;17.65;9.68;;;;;;;;;;4957385;28;20096;-70
2023/01/24 05:53:50;;;;;;;15.98;10.13;;;;;;;;;;4957706;28;20050;-70
2023/01/24 05:56:18;;;;;;;18.65;10.07;;;;;;;;;;4957365;28;20043;-70
2023/01/24 05:58:45;;;;;;;16.27;9.43;;;;;;;;;;4957369;28;20042;-70
2023/01/24 06:01:12;;;;;;;15.27;9.88;;;;;;;;;;4957225;28;20035;-70
2023/01/24 06:03:39;;;;;;;17.77;9.60;;;;;;;;;;4957065;28;20039;-70
2023/01/24 06:06:05;;;;;;;14.57;8.98;;;;;;;;;;4957256;28;20057;-70
2023/01/24 06:08:31;;;;;;;15.38;9.40;;;;;;;;;;4941032;28;21013;-70
2023/01/24 06:11:08;;;;;;;18.88;9.52;;;;;;;;;;4957171;28;20480;-70
2023/01/24 06:13:34;;;;;;;15.15;9.00;;;;;;;;;;4940731;29;20047;-70
2023/01/24 06:16:03;;;;;;;16.42;9.30;;;;;;;;;;4937841;29;20399;-70
2023/01/24 06:18:29;;;;;;;15.18;8.73;;;;;;;;;;4937486;29;20097;-70
2023/01/24 06:20:56;;;;;;;15.50;8.70;;;;;;;;;;4950297;29;20105;-70
2023/01/24 06:23:28;;;;;;;16.88;9.82;;;;;;;;;;4953408;29;20063;-70
2023/01/24 06:25:54;;;;;;;16.98;9.00;;;;;;;;;;4953316;29;20170;-70
2023/01/24 06:28:20;;;;;;;16.80;9.38;;;;;;;;;;4953740;29;20566;-70
2023/01/24 06:30:49;;;;;;;16.65;9.57;;;;;;;;;;4953498;29;20129;-70
2023/01/24 06:33:30;;;;;;;15.85;9.38;;;;;;;;;;4953076;29;20034;-70
2023/01/24 06:36:06;;;;;;;15.38;9.38;;;;;;;;;;4953961;29;20039;-70
2023/01/24 06:38:32;;;;;;;15.75;9.43;;;;;;;;;;4953693;29;20047;-70
2023/01/24 06:40:59;;;;;;;16.48;9.32;;;;;;;;;;4953161;29;20138;-70
2023/01/24 06:43:25;;;;;;;16.67;9.02;;;;;;;;;;4953254;28;20039;-70
2023/01/24 06:45:51;;;;;;;16.73;9.27;;;;;;;;;;4953422;29;20418;-70
2023/01/24 06:48:18;;;;;;;17.73;9.60;;;;;;;;;;4952958;29;20506;-70
2023/01/24 06:50:44;;;;;;;16.45;8.90;;;;;;;;;;4952188;29;20062;-69
2023/01/24 06:53:11;;;;;;;15.73;9.77;;;;;;;;;;4949795;28;20043;-68
2023/01/24 06:55:37;;;;;;;18.35;10.43;;;;;;;;;;4948064;29;20039;-68
2023/01/24 06:58:04;;;;;;;17.63;10.10;;;;;;;;;;4952624;29;20058;-68
2023/01/24 07:00:30;;;;;;;16.40;10.20;;;;;;;;;;4952888;29;20061;-66
2023/01/24 07:03:00;;;;;;;16.55;9.95;;;;;;;;;;4952183;29;20047;-67
2023/01/24 07:05:27;;;;;;;15.27;8.65;;;;;;;;;;4953097;29;20051;-69
2023/01/24 07:07:53;;;;;;;16.70;9.95;;;;;;;;;;4949413;29;20050;-69
2023/01/24 07:10:19;;;;;;;17.48;10.35;;;;;;;;;;4948048;29;20047;-68
2023/01/24 07:12:45;;;;;;;15.60;9.40;;;;;;;;;;4953530;28;20390;-68
2023/01/24 07:15:11;;;;;;;15.98;10.07;;;;;;;;;;4949770;29;20581;-68
2023/01/24 07:17:37;;;;;;;19.00;10.38;;;;;;;;;;4917524;29;20074;-67
2023/01/24 07:20:03;;;;;;;18.73;9.70;;;;;;;;;;4960396;28;20058;-67
2023/01/24 07:22:30;;;;;;;17.90;10.13;;;;;;;;;;4973095;28;20498;-67
2023/01/24 07:24:57;;;;;;;19.00;10.85;;;;;;;;;;4972420;28;20047;-68
2023/01/24 07:27:23;;;;;;;19.73;11.20;;;;;;;;;;4944365;29;20389;-68
2023/01/24 07:29:49;;;;;;;18.58;11.13;;;;;;;;;;4952024;29;20557;-67
2023/01/24 07:32:15;;;;;;;16.58;10.68;;;;;;;;;;4937065;29;20051;-68
2023/01/24 07:34:41;;;;;;;19.67;11.07;;;;;;;;;;4944253;28;20551;-68
2023/01/24 07:37:07;;;;;;;18.50;9.98;;;;;;;;;;4960729;28;20039;-66
2023/01/24 07:39:33;;;;;;;16.35;10.25;;;;;;;;;;4971957;28;20074;-67
2023/01/24 07:42:00;;;;;;;16.63;9.88;;;;;;;;;;4972753;28;20523;-68
2023/01/24 07:44:26;;;;;;;16.23;9.80;;;;;;;;;;4935757;29;20123;-68
2023/01/24 07:46:52;;;;;;;17.80;10.85;;;;;;;;;;4951270;28;20105;-68
2023/01/24 07:49:18;;;;;;;17.38;9.95;;;;;;;;;;4951052;29;20057;-69
2023/01/24 07:51:45;;;;;;;19.58;10.63;;;;;;;;;;4935604;28;20043;-68
2023/01/24 07:54:11;;;;;;;15.95;10.60;;;;;;;;;;4959977;28;20177;-66
2023/01/24 07:56:37;;;;;;;18.75;11.20;;;;;;;;;;4971443;28;20046;-67
2023/01/24 07:59:04;;;;;;;16.60;10.15;;;;;;;;;;4971566;28;20051;-68
2023/01/24 08:01:30;;;;;;;18.48;10.27;;;;;;;;;;4946389;28;20054;-70
2023/01/24 08:03:57;;;;;;;17.83;10.25;;;;;;;;;;4953543;28;20038;-70
2023/01/24 08:06:23;;;;;;;17.13;10.02;;;;;;;;;;4970721;28;20525;-68
2023/01/24 08:08:49;;;;;;;17.02;10.02;;;;;;;;;;4970426;28;20038;-68
2023/01/24 08:11:17;;;;;;;18.48;10.23;;;;;;;;;;4960327;28;20120;-69
2023/01/24 08:13:46;;;;;;;16.45;9.95;;;;;;;;;;4951645;28;20130;-70
2023/01/24 08:16:12;;;;;;;15.85;10.02;;;;;;;;;;4946016;29;20407;-69
2023/01/24 08:18:39;;;;;;;23.73;10.48;;;;;;;;;;4918326;29;20162;-68
2023/01/24 08:21:05;;;;;;;18.63;10.98;;;;;;;;;;4953908;28;20557;-67
2023/01/24 08:23:31;;;;;;;18.63;10.25;;;;;;;;;;4940841;29;20070;-66
2023/01/24 08:25:58;;;;;;;18.73;11.18;;;;;;;;;;4944289;28;20039;-66
2023/01/24 08:28:24;;;;;;;18.13;10.85;;;;;;;;;;4965237;28;20049;-66
2023/01/24 08:30:50;;;;;;;18.13;10.70;;;;;;;;;;4964635;28;20044;-70
2023/01/24 08:33:20;;;;;;;20.35;10.35;;;;;;;;;;4954653;28;20042;-68
2023/01/24 08:35:46;;;;;;;18.50;10.52;;;;;;;;;;4964788;28;20055;-69
2023/01/24 08:38:12;;;;;;;16.92;10.30;;;;;;;;;;4946936;28;20426;-69
2023/01/24 08:40:39;;;;;;;20.73;11.23;;;;;;;;;;4962412;28;20050;-68
2023/01/24 08:43:05;;;;;;;17.75;10.43;;;;;;;;;;4945866;28;20058;-68
2023/01/24 08:45:31;;;;;;;16.98;10.10;;;;;;;;;;4946592;28;20457;-68
2023/01/24 08:47:57;;;;;;;21.20;12.80;;;;;;;;;;4941268;28;20145;-69
2023/01/24 08:50:23;;;;;;;19.13;11.20;;;;;;;;;;4949011;28;20065;-69
2023/01/24 08:52:49;;;;;;;17.45;10.32;;;;;;;;;;4938115;28;20681;-68
2023/01/24 08:55:15;;;;;;;17.27;10.52;;;;;;;;;;4969874;28;20043;-68
2023/01/24 08:57:41;;;;;;;17.17;10.18;;;;;;;;;;4969262;28;20121;-68
2023/01/24 09:00:08;;;;;;;18.02;10.45;;;;;;;;;;4967072;28;20051;-68
2023/01/24 09:02:36;;;;;;;18.52;10.32;;;;;;;;;;4964531;28;20410;-68
2023/01/24 09:05:03;;;;;;;17.17;10.40;;;;;;;;;;4965920;28;20073;-68
2023/01/24 09:07:29;;;;;;;18.13;10.63;;;;;;;;;;4942130;28;20058;-69
2023/01/24 09:09:56;;;;;;;18.13;10.07;;;;;;;;;;4949571;28;20054;-69
2023/01/24 09:12:22;;;;;;;17.17;10.10;;;;;;;;;;4968232;28;20792;-67
2023/01/24 09:14:48;;;;;;;16.08;10.13;;;;;;;;;;4950186;28;20042;-69
2023/01/24 09:17:14;;;;;;;18.15;10.68;;;;;;;;;;4948757;28;20536;-67
2023/01/24 09:19:40;;;;;;;16.45;10.02;;;;;;;;;;4951805;28;20153;-67
2023/01/24 09:22:06;;;;;;;16.20;10.35;;;;;;;;;;4950988;28;20137;-70
2023/01/24 09:24:32;;;;;;;16.45;10.65;;;;;;;;;;4947898;28;20503;-69
2023/01/24 09:26:58;;;;;;;15.32;9.63;;;;;;;;;;4949258;28;20873;-69
2023/01/24 09:29:24;;;;;;;17.27;10.25;;;;;;;;;;4960991;28;20078;-67
2023/01/24 09:31:50;;;;;;;15.75;9.77;;;;;;;;;;4961252;28;20035;-69
2023/01/24 09:34:17;;;;;;;17.45;10.30;;;;;;;;;;4960676;28;20043;-66
2023/01/24 09:36:43;;;;;;;18.00;10.55;;;;;;;;;;4964960;28;20078;-66
2023/01/24 09:39:09;;;;;;;19.75;10.95;;;;;;;;;;4966041;28;20093;-67
2023/01/24 09:41:42;;;;;;;16.23;10.18;;;;;;;;;;4968428;28;20056;-66
2023/01/24 09:44:16;;;;;;;16.98;10.40;;;;;;;;;;4965814;28;20043;-67
2023/01/24 09:46:49;;;;;;;17.67;9.98;;;;;;;;;;4945497;28;20047;-66
2023/01/24 09:49:18;;;;;;;14.80;9.85;;;;;;;;;;4969526;28;20042;-68
2023/01/24 09:51:48;;;;;;;17.90;10.73;;;;;;;;;;4943290;29;20053;-69
2023/01/24 09:54:34;;;;;;;20.33;9.73;;;;;;;;;;4964529;28;20493;-69
2023/01/24 09:57:00;;;;;;;16.67;10.15;;;;;;;;;;4945814;28;20055;-67
2023/01/24 09:59:36;;;;;;;16.35;10.05;;;;;;;;;;4950699;28;20686;-65
2023/01/24 10:02:04;;;;;;;14.95;10.07;;;;;;;;;;4950057;28;20058;-67
2023/01/24 10:04:32;;;;;;;19.25;11.70;;;;;;;;;;4965863;28;20063;-67
2023/01/24 10:07:04;;;;;;;15.10;10.00;;;;;;;;;;4966531;28;20125;-68
2023/01/24 10:09:39;;;;;;;16.05;10.18;;;;;;;;;;4943182;28;20122;-68
2023/01/24 10:12:38;;;;;;;17.05;10.75;;;;;;;;;;4948918;28;20505;-68
2023/01/24 10:15:07;;;;;;;15.50;9.75;;;;;;;;;;4913473;28;20152;-67
2023/01/24 10:17:48;;;;;;;20.08;10.40;;;;;;;;;;4965976;28;20042;-67
2023/01/24 10:20:33;;;;;;;18.20;11.27;;;;;;;;;;4969210;28;20405;-67
2023/01/24 10:23:11;;;;;;;16.85;10.25;;;;;;;;;;4966140;28;20501;-66
2023/01/24 10:25:49;;;;;;;18.40;10.32;;;;;;;;;;4970306;28;20039;-68
2023/01/24 10:28:40;;;;;;;17.40;10.45;;;;;;;;;;4967380;28;20409;-66
2023/01/24 10:31:09;;;;;;;15.88;10.43;;;;;;;;;;4965198;28;20054;-68
2023/01/24 10:33:49;;;;;;;17.38;10.82;;;;;;;;;;4929561;28;20453;-67
2023/01/24 10:36:34;;;;;;;18.48;10.80;;;;;;;;;;4965335;28;20042;-68
2023/01/24 10:39:00;;;;;;;16.08;10.32;;;;;;;;;;4952261;28;20142;-69
2023/01/24 10:41:26;;;;;;;17.17;10.00;;;;;;;;;;4952170;28;20117;-66
2023/01/24 10:43:59;;;;;;;17.70;11.10;;;;;;;;;;4970307;28;20066;-67
2023/01/24 10:46:25;;;;;;;;;;;;;;;;;;4947037;28;20054;-69
2023/01/24 10:48:53;;;;;;;15.23;9.88;;;;;;;;;;4944686;28;19926;-70
2023/01/24 10:51:20;;;;;;;14.95;9.63;;;;;;;;;;4939975;29;20040;-69
2023/01/24 10:53:46;;;;;;;17.52;10.57;;;;;;;;;;4944273;28;20039;-68
2023/01/24 10:56:14;;;;;;;17.20;10.63;;;;;;;;;;4971645;28;20528;-66
2023/01/24 10:58:40;;;;;;;19.50;11.40;;;;;;;;;;4969351;28;20117;-68
2023/01/24 11:01:08;;;;;;;17.40;11.65;;;;;;;;;;4943817;28;20391;-68
2023/01/24 11:03:38;;;;;;;16.90;10.77;;;;;;;;;;4948246;28;20485;-68
2023/01/24 11:06:05;;;;;;;16.67;11.55;;;;;;;;;;4929690;28;20373;-69
2023/01/24 11:08:35;;;;;;;17.27;10.77;;;;;;;;;;4952845;28;20126;-68
2023/01/24 11:11:01;;;;;;;19.67;10.82;;;;;;;;;;4967504;28;20078;-66
2023/01/24 11:13:34;;;;;;;17.00;11.50;;;;;;;;;;4965813;28;20031;-67
2023/01/24 11:16:02;;;;;;;16.50;11.07;;;;;;;;;;4968563;28;20047;-70
2023/01/24 11:18:29;;;;;;;15.48;10.32;;;;;;;;;;4950637;28;20035;-70
2023/01/24 11:21:14;;;;;;;15.70;9.50;;;;;;;;;;4940235;29;20147;-68
2023/01/24 11:23:40;;;;;;;16.92;10.30;;;;;;;;;;4948434;29;20607;-68
2023/01/24 11:26:07;;;;;;;17.90;10.70;;;;;;;;;;4943878;29;20135;-68
2023/01/24 11:28:34;;;;;;;17.55;10.60;;;;;;;;;;4937805;28;20117;-67
2023/01/24 11:31:02;;;;;;;19.48;11.55;;;;;;;;;;4936502;29;20047;-66
2023/01/24 11:33:58;;;;;;;16.05;10.88;;;;;;;;;;4945505;29;20058;-66
2023/01/24 11:36:36;;;;;;;17.95;10.45;;;;;;;;;;4947252;29;20090;-70
2023/01/24 11:39:05;;;;;;;16.35;10.38;;;;;;;;;;4951175;29;20054;-70
2023/01/24 11:41:35;;;;;;;15.77;10.63;;;;;;;;;;4943966;29;20073;-70
2023/01/24 11:44:04;;;;;;;15.65;10.50;;;;;;;;;;4931600;29;20051;-70
2023/01/24 11:46:42;;;;;;;18.60;11.18;;;;;;;;;;4949133;29;20099;-70
2023/01/24 11:49:14;;;;;;;17.35;11.90;;;;;;;;;;4940499;29;20047;-70
2023/01/24 11:51:53;;;;;;;18.23;10.43;;;;;;;;;;4950452;29;20036;-71
2023/01/24 11:54:19;;;;;;;18.63;10.75;;;;;;;;;;4930636;29;20059;-70
2023/01/24 11:56:48;;;;;;;19.48;10.50;;;;;;;;;;4945160;29;20058;-70
2023/01/24 11:59:20;;;;;;;18.92;11.55;;;;;;;;;;4951179;29;20521;-70
2023/01/24 12:01:46;;;;;;;18.27;11.50;;;;;;;;;;4942894;29;20095;-70
2023/01/24 12:04:12;;;;;;;17.52;11.57;;;;;;;;;;4934721;29;20051;-70
2023/01/24 12:06:38;;;;;;;17.17;11.25;;;;;;;;;;4951500;29;20093;-70
2023/01/24 12:09:18;;;;;;;17.20;10.75;;;;;;;;;;4940512;29;20043;-69
2023/01/24 12:12:03;;;;;;;16.10;10.55;;;;;;;;;;4933647;29;20150;-70
2023/01/24 12:14:38;;;;;;;19.95;11.40;;;;;;;;;;4946411;29;20682;-70
2023/01/24 12:17:07;;;;;;;17.15;10.60;;;;;;;;;;4944342;29;20036;-68
2023/01/24 12:19:36;;;;;;;16.40;10.32;;;;;;;;;;4947082;28;20043;-68
2023/01/24 12:22:08;;;;;;;17.33;11.15;;;;;;;;;;4930707;28;20057;-67
2023/01/24 12:24:36;;;;;;;16.55;11.77;;;;;;;;;;4949106;28;20048;-66
2023/01/24 12:27:06;;;;;;;17.10;11.32;;;;;;;;;;4966126;28;20237;-66
2023/01/24 12:29:40;;;;;;;18.40;11.98;;;;;;;;;;4966873;28;20481;-66
2023/01/24 12:32:12;;;;;;;18.33;11.70;;;;;;;;;;4947371;29;20039;-66
2023/01/24 12:35:02;;;;;;;18.75;12.30;;;;;;;;;;4965030;28;20666;-66
2023/01/24 12:37:35;;;;;;;18.60;10.68;;;;;;;;;;4961134;28;20035;-67
2023/01/24 12:40:07;;;;;;;19.08;12.05;;;;;;;;;;4963289;28;20089;-67
2023/01/24 12:42:52;;;;;;;26.60;16.05;;;;;;;;;;4960969;28;20043;-68
2023/01/24 12:45:25;;;;;;;21.38;12.02;;;;;;;;;;4966322;28;20046;-67
2023/01/24 12:48:02;;;;;;;18.92;11.23;;;;;;;;;;4964866;28;20050;-66
2023/01/24 12:50:34;;;;;;;25.10;15.30;;;;;;;;;;4967557;28;20054;-65
2023/01/24 12:53:19;;;;;;;17.23;10.98;;;;;;;;;;4945584;28;20043;-66
2023/01/24 12:56:04;;;;;;;17.80;11.80;;;;;;;;;;4963821;28;20050;-67
2023/01/24 12:58:33;;;;;;;17.45;11.55;;;;;;;;;;4962164;28;20397;-65
2023/01/24 13:01:05;;;;;;;16.88;11.30;;;;;;;;;;4959932;28;20043;-65
2023/01/24 13:03:49;;;;;;;21.20;11.20;;;;;;;;;;4961229;28;20042;-65
2023/01/24 13:06:34;;;;;;;16.05;10.95;;;;;;;;;;4959384;28;20102;-65
2023/01/24 13:09:14;;;;;;;16.60;10.98;;;;;;;;;;4962635;28;20034;-65
2023/01/24 13:11:45;;;;;;;16.83;11.45;;;;;;;;;;4969879;28;20039;-65
2023/01/24 13:14:14;;;;;;;16.20;10.68;;;;;;;;;;4969486;28;20035;-65
2023/01/24 13:17:04;;;;;;;17.00;10.43;;;;;;;;;;4964887;28;20047;-65
2023/01/24 13:19:49;;;;;;;17.13;10.95;;;;;;;;;;4958702;28;20138;-64
2023/01/24 13:22:34;;;;;;;18.65;11.52;;;;;;;;;;4965972;28;20046;-66
2023/01/24 13:25:18;;;;;;;17.10;11.27;;;;;;;;;;4961076;28;20046;-66
2023/01/24 13:27:47;;;;;;;18.17;11.43;;;;;;;;;;4965886;28;20039;-66
2023/01/24 13:30:24;;;;;;;18.40;11.02;;;;;;;;;;4966212;28;20466;-67
2023/01/24 13:32:51;;;;;;;17.70;10.98;;;;;;;;;;4962676;28;20039;-66
2023/01/24 13:35:24;;;;;;;21.17;11.75;;;;;;;;;;4946130;28;20035;-66
2023/01/24 13:37:51;;;;;;;18.42;11.85;;;;;;;;;;4965875;28;20069;-64
2023/01/24 13:40:17;;;;;;;16.85;11.38;;;;;;;;;;4966520;28;20043;-64
2023/01/24 13:42:44;;;;;;;18.15;11.68;;;;;;;;;;4967880;28;20070;-64
2023/01/24 13:45:36;;;;;;;19.35;11.48;;;;;;;;;;4968322;28;20031;-63
2023/01/24 13:48:08;;;;;;;17.63;11.15;;;;;;;;;;4953329;28;20059;-65
2023/01/24 13:50:34;;;;;;;17.48;11.27;;;;;;;;;;4968721;28;20058;-67
2023/01/24 13:53:00;;;;;;;19.50;11.60;;;;;;;;;;4966392;28;20129;-62
2023/01/24 13:55:29;;;;;;;16.45;10.05;;;;;;;;;;4962903;28;20494;-63
2023/01/24 13:58:08;;;;;;;17.70;11.25;;;;;;;;;;4963211;28;20159;-63
2023/01/24 14:00:35;;;;;;;18.15;11.75;;;;;;;;;;4964228;28;20039;-61
2023/01/24 14:03:20;;;;;;;15.60;10.73;;;;;;;;;;4957991;28;20051;-63
2023/01/24 14:05:48;;;;;;;17.48;11.23;;;;;;;;;;4969835;28;20126;-62
2023/01/24 14:08:26;;;;;;;17.30;11.15;;;;;;;;;;4973998;28;20035;-62
2023/01/24 14:11:10;;;;;;;18.30;11.10;;;;;;;;;;4969565;28;20046;-61
2023/01/24 14:13:42;;;;;;;21.17;11.40;;;;;;;;;;4944441;29;20039;-61
2023/01/24 14:16:12;;;;;;;17.63;10.73;;;;;;;;;;4960039;28;20043;-61
2023/01/24 14:18:41;;;;;;;16.80;10.90;;;;;;;;;;4973718;28;20039;-62
2023/01/24 14:21:19;;;;;;;19.42;12.15;;;;;;;;;;4973554;28;20062;-62
2023/01/24 14:23:47;;;;;;;18.55;11.63;;;;;;;;;;4960302;28;20057;-62
2023/01/24 14:26:15;;;;;;;20.23;11.68;;;;;;;;;;4973390;28;20058;-62
2023/01/24 14:28:45;;;;;;;17.75;11.30;;;;;;;;;;4974020;28;20047;-62
2023/01/24 14:31:30;;;;;;;18.50;12.27;;;;;;;;;;4965449;28;20047;-62
2023/01/24 14:34:15;;;;;;;16.63;11.13;;;;;;;;;;4960308;28;20041;-63
2023/01/24 14:36:43;;;;;;;20.40;12.20;;;;;;;;;;4973278;28;20094;-63
2023/01/24 14:39:38;;;;;;;18.58;11.82;;;;;;;;;;4973704;28;20082;-63
2023/01/24 14:42:06;;;;;;;19.48;12.23;;;;;;;;;;4938140;28;20397;-63
2023/01/24 14:44:33;;;;;;;22.33;12.80;;;;;;;;;;4973199;28;20543;-63
2023/01/24 14:47:01;;;;;;;18.88;11.30;;;;;;;;;;4973094;28;20047;-61
2023/01/24 14:49:29;;;;;;;17.75;11.60;;;;;;;;;;4969807;28;20087;-62
2023/01/24 14:51:55;;;;;;;16.67;11.85;;;;;;;;;;4970537;28;20063;-62
2023/01/24 14:54:23;;;;;;;17.98;10.77;;;;;;;;;;4964396;28;20042;-62
2023/01/24 14:56:49;;;;;;;17.60;11.88;;;;;;;;;;4962651;28;20465;-62
2023/01/24 14:59:17;;;;;;;24.42;12.65;;;;;;;;;;4973573;28;20354;-62
2023/01/24 15:01:45;;;;;;;22.85;13.95;;;;;;;;;;4972956;28;20523;-61
2023/01/24 15:04:26;;;;;;;19.27;12.93;;;;;;;;;;4972278;28;20491;-62
2023/01/24 15:07:05;;;;;;;21.52;12.98;;;;;;;;;;4972441;28;20047;-62
2023/01/24 15:09:31;;;;;;;15.77;10.82;;;;;;;;;;4961393;28;20478;-61
2023/01/24 15:11:58;;;;;;;18.98;11.40;;;;;;;;;;4969288;28;20047;-61